Hlavní strana
METAR-TAF:

METAR-TAF

Letiště :

Mezinárodní letiště Sunan

Pchjongjang, Severní Korea

zeměpisná šířka: 39-02N, zeměpisná délka: 125-47E, výška: 36 m

METAR: chybějící

Čas: 16:43 (08:13 UTC)

Předpověď počasí

Zpráva byla vytvořena před 4 hodinami a 3 minutami, v 04:10 UTC
Předpověď platná od 26 v 06 UTC do 27 v 06 UTC
Severoseverovýchodní vítr 8 kt
Viditelnost 10 km a více
Zataženo ve výšce 2000 ft
Změna
od 26 v 08 UTC do 26 v 10 UTC
Severozápadní vítr 8 kt
Viditelnost 10 km a více
Žádná oblačnost pod 1500 m, nevyskytují se cumulonimby.
Dočasný
od 26 v 20 UTC do 26 v 24 UTC
Viditelnost: 1500 m
kouřmo

TAF: ZKPY 260410Z 2606/2706 03004MPS 9999 OVC020 TX14/2606Z TN03/2621Z BECMG 2608/2610 32004MPS CAVOK TEMPO 2620/2624 1500 BR

Stav a předpovědi počasí z více než 4 000 letišť (zprávy METAR a TAF).

Červené a žluté tečky na mapě představují dostupné meteorologické stanice.

Když kurzor umístíte na tečku, zobrazí se název stanice.

Pak kliknutím zobrazíte stav a předpověď počasí.

Chcete-li změnit mapu, kliknutím na zelené tlačítko se znaménkem +mapu přiblížíte, kliknutím na zelené tlačítko se znaménkem – mapu oddálíte a kliknutím na zelené šipky přejdete na sousední mapy.


METAR-TAF: